La Clotilde, Argentina
Current Conditions -  °F | °C
As of 11:00 PM on Saturday 20 Dec 2014 (Local Time) from SARE Reporting Station
Overcast Overcast  
Wind Chill: 88°   Ceiling: 2500
Heat Index: 100°   Visibility: 6mi
Dew Point: 77°   Wind: 7mph
Humidity: 70%   Direction: 50°NE
Pressure: 29.44"   Gusts: NA
Location:  27.17°S, 60.64°W
Report Text: SARE 210200Z 05006KT 9999 BKN025 OVC100 FEW056CB 31/25 Q0997
Loading
Personal Weather Stations






























Interactive Weather Map New forecast layout! Learn more

10-Day Weather Forecast

Advertisements
Track Severe Weather on mobile